createdAt,value
2017-12-11T00:00:09.049Z,97645.41
2017-12-11T00:01:13.970Z,97645.41
2017-12-11T00:02:18.125Z,97652.53
2017-12-11T00:03:22.309Z,97655.24
2017-12-11T00:04:26.466Z,97662.41
2017-12-11T00:05:30.764Z,97662.55
2017-12-11T00:06:34.983Z,97659.84
2017-12-11T00:07:39.582Z,97663.09
2017-12-11T00:08:43.804Z,97671.78
2017-12-11T00:09:48.007Z,97668.87
2017-12-11T00:10:52.146Z,97670.00
2017-12-11T00:11:56.298Z,97669.14
2017-12-11T00:13:00.577Z,97687.56
2017-12-11T00:14:05.053Z,97692.89
2017-12-11T00:15:09.980Z,97699.84
2017-12-11T00:16:17.749Z,97706.76
2017-12-11T00:17:22.285Z,97712.69
2017-12-11T00:18:26.466Z,97727.36
2017-12-11T00:19:30.712Z,97731.34
2017-12-11T00:20:35.019Z,97732.88
2017-12-11T00:21:39.172Z,97731.09
2017-12-11T00:22:48.441Z,97737.70
2017-12-11T00:23:52.584Z,97727.66
2017-12-11T00:26:41.286Z,97744.42
2017-12-11T00:27:45.633Z,97746.84
2017-12-11T00:28:50.118Z,97752.63
2017-12-11T00:29:54.553Z,97757.05
2017-12-11T00:30:59.015Z,97764.00
2017-12-11T00:32:03.386Z,97763.83
2017-12-11T00:33:07.944Z,97773.09
2017-12-11T00:34:12.290Z,97769.75
2017-12-11T00:35:16.537Z,97769.16
2017-12-11T00:36:20.846Z,97774.38
2017-12-11T00:37:25.204Z,97775.34
2017-12-11T00:38:29.411Z,97783.15
2017-12-11T00:39:34.014Z,97782.29
2017-12-11T00:40:38.369Z,97785.98
2017-12-11T00:41:42.734Z,97785.27
2017-12-11T00:42:47.643Z,97790.48
2017-12-11T00:43:51.932Z,97790.44
2017-12-11T00:44:56.215Z,97797.48
2017-12-11T00:46:02.548Z,97804.03
2017-12-11T00:47:07.388Z,97815.81
2017-12-11T00:48:12.576Z,97820.30
2017-12-11T00:49:16.877Z,97827.45
2017-12-11T00:50:21.121Z,97842.30
2017-12-11T00:51:25.376Z,97844.86
2017-12-11T00:52:29.841Z,97853.91
2017-12-11T00:53:34.199Z,97855.84
2017-12-11T00:54:38.484Z,97869.70
2017-12-11T00:55:42.850Z,97872.16
2017-12-11T00:56:47.603Z,97881.02
2017-12-11T00:57:51.893Z,97885.50
2017-12-11T00:58:56.495Z,97889.07
2017-12-11T01:00:00.753Z,97899.39
2017-12-11T01:01:05.275Z,97901.11
2017-12-11T01:02:10.531Z,97911.18
2017-12-11T01:03:14.758Z,97922.70
2017-12-11T01:04:19.488Z,97929.75
2017-12-11T01:05:24.057Z,97931.87
2017-12-11T01:06:28.387Z,97937.31
2017-12-11T01:07:32.745Z,97947.31
2017-12-11T01:08:37.054Z,97956.98
2017-12-11T01:09:41.410Z,97969.03
2017-12-11T01:10:45.942Z,97973.35
2017-12-11T01:11:50.617Z,97970.47
2017-12-11T01:12:54.894Z,97982.55
2017-12-11T01:13:59.236Z,97984.33
2017-12-11T01:15:07.162Z,97986.45
2017-12-11T01:16:11.409Z,97998.08
2017-12-11T01:17:15.964Z,98004.02
2017-12-11T01:18:20.296Z,98012.05
2017-12-11T01:19:24.544Z,98029.27
2017-12-11T01:20:28.763Z,98033.84
2017-12-11T01:21:32.964Z,98040.10
2017-12-11T01:22:37.303Z,98048.56
2017-12-11T01:23:41.893Z,98049.14
2017-12-11T01:24:46.884Z,98054.01
2017-12-11T01:25:51.138Z,98061.76
2017-12-11T01:26:55.386Z,98063.38
2017-12-11T01:27:59.692Z,98071.23
2017-12-11T01:29:03.930Z,98075.06
2017-12-11T01:30:10.010Z,98084.11
2017-12-11T01:31:14.379Z,98089.47
2017-12-11T01:32:18.853Z,98090.93
2017-12-11T01:33:23.065Z,98087.34
2017-12-11T01:34:27.453Z,98087.05
2017-12-11T01:35:31.662Z,98093.73
2017-12-11T01:36:36.324Z,98097.51
2017-12-11T01:37:40.586Z,98104.70
2017-12-11T01:38:45.360Z,98109.87
2017-12-11T01:39:49.608Z,98114.81
2017-12-11T01:40:53.938Z,98119.05
2017-12-11T01:41:58.234Z,98120.77
2017-12-11T01:43:02.509Z,98112.79
2017-12-11T01:44:06.824Z,98119.41
2017-12-11T01:45:13.319Z,98124.16
2017-12-11T01:46:17.568Z,98123.51
2017-12-11T01:47:21.791Z,98133.41
2017-12-11T01:48:26.022Z,98139.18
2017-12-11T01:49:30.728Z,98157.98
2017-12-11T01:50:34.969Z,98152.52
2017-12-11T01:51:39.214Z,98162.20
2017-12-11T01:52:44.602Z,98170.48
2017-12-11T01:53:49.625Z,98177.97
2017-12-11T01:54:54.387Z,98183.22
2017-12-11T01:55:58.989Z,98187.97
2017-12-11T01:57:11.239Z,98185.45
2017-12-11T01:58:15.484Z,98195.99
2017-12-11T01:59:22.335Z,98194.77
2017-12-11T02:00:27.021Z,98199.59
2017-12-11T02:01:31.268Z,98199.91
2017-12-11T02:02:35.497Z,98204.23
2017-12-11T02:03:39.825Z,98199.59
2017-12-11T02:04:45.524Z,98202.19
2017-12-11T02:05:49.769Z,98208.42
2017-12-11T02:06:54.037Z,98221.52
2017-12-11T02:07:58.607Z,98226.78
2017-12-11T02:09:03.549Z,98233.10
2017-12-11T02:10:07.846Z,98227.52
2017-12-11T02:11:12.144Z,98233.08
2017-12-11T02:12:16.388Z,98238.23
2017-12-11T02:13:20.636Z,98242.59
2017-12-11T02:14:25.209Z,98239.70
2017-12-11T02:15:29.874Z,98250.53
2017-12-11T02:16:34.247Z,98254.38
2017-12-11T02:17:38.456Z,98259.53
2017-12-11T02:18:42.659Z,98259.94
2017-12-11T02:19:46.977Z,98252.34
2017-12-11T02:20:51.504Z,98259.16
2017-12-11T02:21:55.886Z,98259.17
2017-12-11T02:23:00.096Z,98257.08
2017-12-11T02:24:04.393Z,98263.29
2017-12-11T02:25:08.771Z,98259.34
2017-12-11T02:26:12.991Z,98266.05
2017-12-11T02:27:17.566Z,98267.77
2017-12-11T02:28:21.904Z,98270.61
2017-12-11T02:29:26.205Z,98276.63
2017-12-11T02:30:30.444Z,98276.87
2017-12-11T02:31:34.713Z,98267.00
2017-12-11T02:32:39.033Z,98284.58
2017-12-11T02:33:44.221Z,98274.67
2017-12-11T02:34:48.492Z,98277.48
2017-12-11T02:35:52.807Z,98277.84
2017-12-11T02:36:57.238Z,98279.09
2017-12-11T02:38:01.610Z,98280.77
2017-12-11T02:39:07.142Z,98272.84
2017-12-11T02:40:11.707Z,98274.02
2017-12-11T02:41:16.051Z,98282.34
2017-12-11T02:42:20.326Z,98281.60
2017-12-11T02:43:24.599Z,98289.52
2017-12-11T02:44:28.881Z,98287.61
2017-12-11T02:45:33.460Z,98291.13
2017-12-11T02:46:38.668Z,98283.33
2017-12-11T02:47:44.020Z,98282.77
2017-12-11T02:48:48.244Z,98288.42
2017-12-11T02:49:52.573Z,98283.09
2017-12-11T02:50:56.837Z,98283.42
2017-12-11T02:52:01.133Z,98290.02
2017-12-11T02:53:05.977Z,98289.28
2017-12-11T02:54:10.290Z,98277.41
2017-12-11T02:55:14.591Z,98283.36
2017-12-11T02:56:18.866Z,98277.80
2017-12-11T02:57:23.077Z,98284.23
2017-12-11T02:58:27.335Z,98281.77
2017-12-11T02:59:32.005Z,98282.70
2017-12-11T03:00:36.497Z,98284.45
2017-12-11T03:01:40.687Z,98283.56
2017-12-11T03:02:45.809Z,98288.25
2017-12-11T03:03:50.165Z,98291.09
2017-12-11T03:04:54.416Z,98292.08
2017-12-11T03:05:58.971Z,98297.14
2017-12-11T03:07:03.234Z,98300.77
2017-12-11T03:08:08.246Z,98305.56
2017-12-11T03:09:12.589Z,98318.23
2017-12-11T03:10:16.780Z,98321.14
2017-12-11T03:11:21.145Z,98322.98
2017-12-11T03:12:25.825Z,98325.94
2017-12-11T03:13:30.133Z,98325.08
2017-12-11T03:14:34.495Z,98327.16
2017-12-11T03:15:38.731Z,98328.95
2017-12-11T03:16:43.075Z,98327.42
2017-12-11T03:17:47.347Z,98330.06
2017-12-11T03:18:51.568Z,98321.82
2017-12-11T03:19:55.887Z,98338.50
2017-12-11T03:21:00.165Z,98342.19
2017-12-11T03:22:04.472Z,98341.78
2017-12-11T03:23:09.561Z,98352.50
2017-12-11T03:24:13.832Z,98352.61
2017-12-11T03:25:19.330Z,98354.64
2017-12-11T03:26:23.635Z,98353.61
2017-12-11T03:27:27.898Z,98361.09
2017-12-11T03:28:32.108Z,98366.77
2017-12-11T03:29:36.436Z,98357.69
2017-12-11T03:30:40.969Z,98359.33
2017-12-11T03:31:46.339Z,98355.37
2017-12-11T03:32:50.656Z,98363.67
2017-12-11T03:33:54.898Z,98363.72
2017-12-11T03:34:59.180Z,98373.23
2017-12-11T03:36:03.453Z,98377.25
2017-12-11T03:37:08.118Z,98387.13
2017-12-11T03:38:12.643Z,98388.53
2017-12-11T03:39:16.921Z,98406.56
2017-12-11T03:40:21.195Z,98412.94
2017-12-11T03:41:25.452Z,98420.98
2017-12-11T03:42:29.652Z,98424.03
2017-12-11T03:43:34.249Z,98420.90
2017-12-11T03:44:38.491Z,98426.24
2017-12-11T03:45:43.640Z,98429.31
2017-12-11T03:46:48.765Z,98440.89
2017-12-11T03:47:52.925Z,98448.43
2017-12-11T03:48:57.107Z,98459.42
2017-12-11T03:50:01.751Z,98465.11
2017-12-11T03:51:06.969Z,98465.14
2017-12-11T03:52:11.252Z,98473.63
2017-12-11T03:53:15.649Z,98481.08
2017-12-11T03:54:19.886Z,98490.86
2017-12-11T03:55:24.105Z,98500.54
2017-12-11T03:56:28.774Z,98509.17
2017-12-11T03:57:32.980Z,98517.91
2017-12-11T03:58:37.228Z,98521.86
2017-12-11T03:59:41.519Z,98523.98
2017-12-11T04:00:46.406Z,98517.75
2017-12-11T04:01:50.632Z,98515.14
2017-12-11T04:02:55.253Z,98513.48
2017-12-11T04:03:59.496Z,98525.69
2017-12-11T04:05:03.659Z,98529.75
2017-12-11T04:06:08.522Z,98545.73
2017-12-11T04:07:12.688Z,98556.25
2017-12-11T04:08:16.901Z,98563.69
2017-12-11T04:09:21.117Z,98572.52
2017-12-11T04:10:25.477Z,98579.69
2017-12-11T04:11:29.736Z,98576.27
2017-12-11T04:12:34.075Z,98568.43
2017-12-11T04:13:38.444Z,98566.56
2017-12-11T04:14:42.654Z,98570.42
2017-12-11T04:15:48.101Z,98572.55
2017-12-11T04:16:52.762Z,98578.64
2017-12-11T04:17:57.331Z,98589.92
2017-12-11T04:19:01.788Z,98591.40
2017-12-11T04:20:06.005Z,98593.35
2017-12-11T04:21:11.323Z,98604.66
2017-12-11T04:22:15.856Z,98603.19
2017-12-11T04:23:20.142Z,98603.10
2017-12-11T04:24:24.368Z,98603.05
2017-12-11T04:25:28.601Z,98602.72
2017-12-11T04:26:32.889Z,98606.26
2017-12-11T04:27:37.103Z,98609.31
2017-12-11T04:28:41.653Z,98608.89
2017-12-11T04:29:45.891Z,98611.12
2017-12-11T04:30:50.433Z,98606.41
2017-12-11T04:31:54.716Z,98615.08
2017-12-11T04:32:58.931Z,98608.05
2017-12-11T04:34:03.501Z,98607.02
2017-12-11T04:35:08.568Z,98602.30
2017-12-11T04:36:12.935Z,98606.72
2017-12-11T04:37:17.176Z,98602.34
2017-12-11T04:38:21.381Z,98597.03
2017-12-11T04:39:25.629Z,98583.11
2017-12-11T04:40:30.148Z,98576.08
2017-12-11T04:41:34.461Z,98573.38
2017-12-11T04:42:38.787Z,98567.66
2017-12-11T04:43:42.991Z,98569.86
2017-12-11T04:44:47.205Z,98552.34
2017-12-11T04:45:51.855Z,98551.05
2017-12-11T04:46:56.373Z,98533.72
2017-12-11T04:48:00.715Z,98540.55
2017-12-11T04:49:05.066Z,98547.58
2017-12-11T04:50:09.354Z,98546.27
2017-12-11T04:51:13.565Z,98546.48
2017-12-11T04:52:17.843Z,98546.41
2017-12-11T04:53:22.428Z,98545.02
2017-12-11T04:54:26.747Z,98549.03
2017-12-11T04:55:31.009Z,98546.76
2017-12-11T04:56:35.353Z,98544.34
2017-12-11T04:57:39.532Z,98544.52
2017-12-11T04:58:43.820Z,98545.34
2017-12-11T04:59:48.144Z,98546.13
2017-12-11T05:00:52.785Z,98541.86
2017-12-11T05:01:57.390Z,98533.27
2017-12-11T05:03:01.802Z,98530.91
2017-12-11T05:04:06.029Z,98517.97
2017-12-11T05:05:10.279Z,98506.28
2017-12-11T05:06:14.929Z,98502.27
2017-12-11T05:07:19.173Z,98494.13
2017-12-11T05:08:23.457Z,98487.50
2017-12-11T05:09:27.672Z,98479.95
2017-12-11T05:10:31.929Z,98473.27
2017-12-11T05:11:36.189Z,98470.20
2017-12-11T05:12:40.718Z,98470.69
2017-12-11T05:13:45.963Z,98481.72
2017-12-11T05:14:50.164Z,98483.69
2017-12-11T05:15:54.749Z,98489.66
2017-12-11T05:16:58.957Z,98489.31
2017-12-11T05:18:03.286Z,98492.64
2017-12-11T05:19:07.803Z,98497.98
2017-12-11T05:20:12.011Z,98507.66
2017-12-11T05:21:16.296Z,98514.47
2017-12-11T05:22:20.528Z,98512.03
2017-12-11T05:23:24.832Z,98519.19
2017-12-11T05:24:29.439Z,98515.83
2017-12-11T05:25:33.720Z,98522.09
2017-12-11T05:26:38.073Z,98528.69
2017-12-11T05:27:42.312Z,98533.95
2017-12-11T05:28:46.522Z,98530.80
2017-12-11T05:29:50.756Z,98537.13
2017-12-11T05:30:55.460Z,98523.20
2017-12-11T05:31:59.787Z,98524.06
2017-12-11T05:33:05.104Z,98521.89
2017-12-11T05:34:09.440Z,98536.56
2017-12-11T05:35:13.837Z,98527.21
2017-12-11T05:36:18.186Z,98528.39
2017-12-11T05:37:22.766Z,98529.70
2017-12-11T05:38:27.030Z,98531.56
2017-12-11T05:39:31.247Z,98538.89
2017-12-11T05:40:35.561Z,98540.56
2017-12-11T05:41:39.912Z,98541.78
2017-12-11T05:42:45.004Z,98543.06
2017-12-11T05:43:49.649Z,98535.19
2017-12-11T05:44:53.937Z,98536.52
2017-12-11T05:45:58.621Z,98542.81
2017-12-11T05:47:02.914Z,98546.58
2017-12-11T05:48:07.789Z,98557.30
2017-12-11T05:49:12.196Z,98561.77
2017-12-11T05:51:30.155Z,98575.65
2017-12-11T05:52:34.867Z,98574.03
2017-12-11T05:53:39.255Z,98578.83
2017-12-11T05:54:43.537Z,98588.14
2017-12-11T05:55:49.177Z,98588.11
2017-12-11T05:56:53.529Z,98584.55
2017-12-11T05:58:04.983Z,98577.62
2017-12-11T05:59:09.394Z,98584.72
2017-12-11T06:00:15.837Z,98574.52
2017-12-11T06:01:20.318Z,98568.95
2017-12-11T06:02:24.895Z,98570.06
2017-12-11T06:03:29.124Z,98562.18
2017-12-11T06:04:33.457Z,98563.56
2017-12-11T06:05:37.754Z,98556.64
2017-12-11T06:06:42.219Z,98546.05
2017-12-11T06:07:46.463Z,98547.53
2017-12-11T06:08:51.014Z,98546.70
2017-12-11T06:09:55.345Z,98538.67
2017-12-11T06:10:59.727Z,98535.53
2017-12-11T06:12:04.787Z,98538.67
2017-12-11T06:13:09.001Z,98533.77
2017-12-11T06:14:13.307Z,98529.45
2017-12-11T06:15:17.856Z,98522.64
2017-12-11T06:16:22.058Z,98520.75
2017-12-11T06:17:26.299Z,98514.03
2017-12-11T06:18:30.525Z,98509.05
2017-12-11T06:19:34.928Z,98509.64
2017-12-11T06:20:39.252Z,98510.94
2017-12-11T06:21:44.835Z,98507.52
2017-12-11T06:22:49.194Z,98507.84
2017-12-11T06:23:53.432Z,98507.52
2017-12-11T06:24:57.749Z,98498.25
2017-12-11T06:26:02.066Z,98500.90
2017-12-11T06:27:07.056Z,98498.48
2017-12-11T06:28:11.661Z,98494.59
2017-12-11T06:29:16.012Z,98510.50
2017-12-11T06:30:20.380Z,98510.25
2017-12-11T06:31:24.641Z,98509.13
2017-12-11T06:32:28.902Z,98511.14
2017-12-11T06:33:33.176Z,98522.67
2017-12-11T06:34:38.311Z,98532.34
2017-12-11T06:35:42.984Z,98535.50
2017-12-11T06:36:47.224Z,98543.57
2017-12-11T06:37:51.489Z,98548.45
2017-12-11T06:38:55.725Z,98557.59
2017-12-11T06:40:00.113Z,98558.59
2017-12-11T06:41:05.540Z,98563.98
2017-12-11T06:42:09.830Z,98561.33
2017-12-11T06:43:14.045Z,98573.72
2017-12-11T06:44:18.453Z,98569.34
2017-12-11T06:45:22.704Z,98567.02
2017-12-11T06:46:27.244Z,98568.69
2017-12-11T06:47:31.793Z,98566.03
2017-12-11T06:48:36.147Z,98570.31
2017-12-11T06:49:40.584Z,98570.33
2017-12-11T06:50:45.637Z,98567.13
2017-12-11T06:51:49.984Z,98565.19
2017-12-11T06:52:54.270Z,98555.00
2017-12-11T06:53:58.904Z,98548.12
2017-12-11T06:55:03.284Z,98549.80
2017-12-11T06:56:08.388Z,98544.57
2017-12-11T06:57:12.673Z,98540.39
2017-12-11T06:58:16.915Z,98534.48
2017-12-11T06:59:21.340Z,98535.34
2017-12-11T07:00:26.041Z,98539.53
2017-12-11T07:01:30.438Z,98531.70
2017-12-11T07:02:35.113Z,98538.22
2017-12-11T07:03:39.479Z,98534.41
2017-12-11T07:04:44.590Z,98529.60
2017-12-11T07:05:49.139Z,98525.80
2017-12-11T07:06:53.531Z,98513.30
2017-12-11T07:07:57.868Z,98509.86
2017-12-11T07:09:02.188Z,98510.50
2017-12-11T07:10:07.631Z,98516.58
2017-12-11T07:11:11.991Z,98512.77
2017-12-11T07:12:16.439Z,98519.11
2017-12-11T07:13:20.746Z,98516.81
2017-12-11T07:14:25.171Z,98529.41
2017-12-11T07:15:29.830Z,98530.98
2017-12-11T07:16:34.168Z,98535.73
2017-12-11T07:17:38.465Z,98526.45
2017-12-11T07:18:44.304Z,98527.66
2017-12-11T07:19:48.701Z,98527.55
2017-12-11T07:20:53.078Z,98517.13
2017-12-11T07:21:57.426Z,98521.31
2017-12-11T07:23:01.772Z,98517.80
2017-12-11T07:24:06.094Z,98526.55
2017-12-11T07:25:10.705Z,98531.53
2017-12-11T07:26:15.119Z,98526.06
2017-12-11T07:27:19.377Z,98534.01
2017-12-11T07:28:23.790Z,98530.33
2017-12-11T07:29:29.138Z,98530.18
2017-12-11T07:30:33.595Z,98536.44
2017-12-11T07:31:38.384Z,98546.15
2017-12-11T07:32:43.996Z,98546.26
2017-12-11T07:33:54.923Z,98548.98
2017-12-11T07:34:59.296Z,98543.98
2017-12-11T07:36:03.691Z,98538.33
2017-12-11T07:37:08.018Z,98543.33
2017-12-11T07:38:12.838Z,98549.00
2017-12-11T07:39:17.177Z,98549.53
2017-12-11T07:40:21.491Z,98545.04
2017-12-11T07:41:25.933Z,98539.43
2017-12-11T07:42:30.205Z,98546.53
2017-12-11T07:43:34.586Z,98553.27
2017-12-11T07:44:39.210Z,98553.38
2017-12-11T07:45:43.821Z,98546.33
2017-12-11T07:46:48.198Z,98537.79
2017-12-11T07:47:52.455Z,98533.09
2017-12-11T07:48:56.808Z,98531.64
2017-12-11T07:50:01.088Z,98530.56
2017-12-11T07:51:05.731Z,98535.38
2017-12-11T07:52:10.057Z,98536.17
2017-12-11T07:53:14.427Z,98533.75
2017-12-11T07:54:18.811Z,98538.05
2017-12-11T07:55:23.072Z,98532.08
2017-12-11T07:56:27.370Z,98541.68
2017-12-11T07:57:31.610Z,98533.43
2017-12-11T07:58:36.008Z,98528.91
2017-12-11T07:59:40.378Z,98533.45
2017-12-11T08:00:45.274Z,98537.40
2017-12-11T08:01:50.249Z,98545.02
2017-12-11T08:02:54.527Z,98546.13
2017-12-11T08:03:59.204Z,98549.06
2017-12-11T08:05:03.472Z,98560.04
2017-12-11T08:06:07.739Z,98565.33
2017-12-11T08:07:12.050Z,98564.08
2017-12-11T08:08:16.227Z,98574.69
2017-12-11T08:09:20.585Z,98579.91
2017-12-11T08:10:25.460Z,98585.66
2017-12-11T08:11:29.998Z,98587.06
2017-12-11T08:12:34.357Z,98602.83
2017-12-11T08:13:38.639Z,98603.61
2017-12-11T08:14:43.723Z,98613.64
2017-12-11T08:15:48.316Z,98615.75
2017-12-11T08:16:52.537Z,98618.42
2017-12-11T08:17:56.761Z,98613.44
2017-12-11T08:19:01.003Z,98612.55
2017-12-11T08:20:05.972Z,98615.30
2017-12-11T08:21:10.414Z,98622.66
2017-12-11T08:22:14.894Z,98622.19
2017-12-11T08:23:19.296Z,98624.84
2017-12-11T08:24:23.605Z,98625.83
2017-12-11T08:25:28.054Z,98626.66
2017-12-11T08:26:32.437Z,98629.75
2017-12-11T08:27:37.431Z,98631.17
2017-12-11T08:28:42.057Z,98645.50
2017-12-11T08:29:46.430Z,98640.61
2017-12-11T08:30:50.950Z,98647.55
2017-12-11T08:31:55.217Z,98647.17
2017-12-11T08:32:59.457Z,98649.32
2017-12-11T08:34:10.297Z,98649.73
2017-12-11T08:35:14.588Z,98652.84
2017-12-11T08:36:18.935Z,98658.53
2017-12-11T08:37:23.138Z,98661.73
2017-12-11T08:38:27.422Z,98657.31
2017-12-11T08:39:31.748Z,98669.20
2017-12-11T08:40:36.448Z,98675.47
2017-12-11T08:41:40.679Z,98683.06
2017-12-11T08:42:47.064Z,98698.18
2017-12-11T08:43:54.004Z,98697.75
2017-12-11T08:44:58.236Z,98696.77
2017-12-11T08:46:02.708Z,98697.59
2017-12-11T08:47:08.079Z,98691.86
2017-12-11T08:48:12.534Z,98694.48
2017-12-11T08:49:16.771Z,98689.28
2017-12-11T08:50:21.136Z,98687.89
2017-12-11T08:51:25.505Z,98689.30
2017-12-11T08:52:30.960Z,98690.19
2017-12-11T08:53:36.624Z,98690.05
2017-12-11T08:54:41.209Z,98697.03
2017-12-11T08:55:46.118Z,98706.29
2017-12-11T08:56:56.953Z,98706.77
2017-12-11T08:58:01.323Z,98707.18
2017-12-11T08:59:08.282Z,98705.80
2017-12-11T09:00:15.559Z,98698.27
2017-12-11T09:01:20.058Z,98694.48
2017-12-11T09:02:26.805Z,98698.03
2017-12-11T09:03:31.125Z,98708.13
2017-12-11T09:04:35.466Z,98709.44
2017-12-11T09:05:40.277Z,98711.79
2017-12-11T09:06:45.274Z,98717.23
2017-12-11T09:07:49.527Z,98710.63
2017-12-11T09:08:54.765Z,98705.09
2017-12-11T09:09:59.516Z,98706.20
2017-12-11T09:11:04.614Z,98707.36
2017-12-11T09:12:10.152Z,98698.18
2017-12-11T09:13:14.637Z,98692.16
2017-12-11T09:14:19.151Z,98689.60
2017-12-11T09:15:23.793Z,98683.72
2017-12-11T09:16:28.188Z,98678.03
2017-12-11T09:17:32.583Z,98671.56
2017-12-11T09:18:36.940Z,98675.50
2017-12-11T09:19:41.261Z,98675.11
2017-12-11T09:20:46.220Z,98672.89
2017-12-11T09:21:50.485Z,98664.05
2017-12-11T09:22:54.735Z,98659.11
2017-12-11T09:23:59.787Z,98654.65
2017-12-11T09:25:04.439Z,98651.42
2017-12-11T09:26:09.415Z,98652.67
2017-12-11T09:27:13.817Z,98662.67
2017-12-11T09:28:18.796Z,98658.73
2017-12-11T09:29:26.345Z,98652.11
2017-12-11T09:30:30.839Z,98650.38
2017-12-11T09:31:35.778Z,98645.98
2017-12-11T09:32:40.140Z,98650.88
2017-12-11T09:33:44.998Z,98657.77
2017-12-11T09:34:49.376Z,98663.98
2017-12-11T09:37:05.777Z,98678.80
2017-12-11T09:38:10.379Z,98687.80
2017-12-11T09:39:14.717Z,98682.82
2017-12-11T09:40:18.925Z,98679.83
2017-12-11T09:41:23.207Z,98676.97
2017-12-11T09:42:27.450Z,98671.62
2017-12-11T09:43:31.698Z,98665.00
2017-12-11T09:44:36.608Z,98668.67
2017-12-11T09:45:41.005Z,98675.13
2017-12-11T09:46:45.367Z,98671.45
2017-12-11T09:47:49.652Z,98661.86
2017-12-11T09:48:53.938Z,98668.69
2017-12-11T09:49:58.417Z,98672.02
2017-12-11T09:51:03.025Z,98669.50
2017-12-11T09:52:07.363Z,98665.46
2017-12-11T09:53:11.682Z,98665.42
2017-12-11T09:54:15.949Z,98659.22
2017-12-11T09:55:20.281Z,98660.63
2017-12-11T09:56:25.010Z,98660.20
2017-12-11T09:57:29.369Z,98650.98
2017-12-11T09:58:33.712Z,98648.14
2017-12-11T09:59:38.050Z,98648.14
2017-12-11T10:00:42.452Z,98648.16
2017-12-11T10:01:46.765Z,98654.84
2017-12-11T10:02:51.624Z,98659.36
2017-12-11T10:03:56.012Z,98663.98
2017-12-11T10:05:00.898Z,98666.98
2017-12-11T10:06:05.222Z,98671.56
2017-12-11T10:07:09.558Z,98676.20
2017-12-11T10:08:13.754Z,98684.31
2017-12-11T10:09:18.421Z,98692.23
2017-12-11T10:10:22.738Z,98688.17
2017-12-11T10:11:26.998Z,98692.68
2017-12-11T10:12:31.362Z,98693.03
2017-12-11T10:13:35.640Z,98693.00
2017-12-11T10:14:39.981Z,98683.89
2017-12-11T10:15:45.539Z,98681.94
2017-12-11T10:16:51.179Z,98667.60
2017-12-11T10:17:55.492Z,98673.50
2017-12-11T10:19:00.065Z,98664.73
2017-12-11T10:20:04.354Z,98662.45
2017-12-11T10:21:08.606Z,98663.66
2017-12-11T10:22:12.971Z,98662.23
2017-12-11T10:23:17.287Z,98664.72
2017-12-11T10:24:21.579Z,98656.36
2017-12-11T10:25:26.650Z,98652.20
2017-12-11T10:26:30.942Z,98641.00
2017-12-11T10:27:35.652Z,98633.53
2017-12-11T10:28:39.956Z,98637.95
2017-12-11T10:29:44.864Z,98644.96
2017-12-11T10:30:49.746Z,98651.39
2017-12-11T10:31:55.209Z,98656.58
2017-12-11T10:32:59.668Z,98650.53
2017-12-11T10:34:05.590Z,98635.12
2017-12-11T10:35:09.818Z,98634.56
2017-12-11T10:36:14.098Z,98633.50
2017-12-11T10:37:18.380Z,98637.70
2017-12-11T10:38:22.643Z,98630.58
2017-12-11T10:39:26.908Z,98627.16
2017-12-11T10:40:31.729Z,98622.31
2017-12-11T10:41:36.026Z,98620.48
2017-12-11T10:42:40.375Z,98617.06
2017-12-11T10:43:44.600Z,98619.73
2017-12-11T10:44:48.888Z,98610.13
2017-12-11T10:45:53.467Z,98622.41
2017-12-11T10:46:57.795Z,98616.82
2017-12-11T10:48:02.264Z,98620.64
2017-12-11T10:49:06.607Z,98624.03
2017-12-11T10:50:10.885Z,98625.51
2017-12-11T10:51:15.258Z,98626.76
2017-12-11T10:52:20.881Z,98624.53
2017-12-11T10:53:25.302Z,98627.19
2017-12-11T10:54:29.657Z,98629.72
2017-12-11T10:55:33.980Z,98628.25
2017-12-11T10:56:38.353Z,98635.81
2017-12-11T10:57:42.665Z,98637.88
2017-12-11T10:58:47.257Z,98629.95
2017-12-11T10:59:51.542Z,98627.95
2017-12-11T11:00:56.251Z,98628.71
2017-12-11T11:02:00.586Z,98631.75
2017-12-11T11:03:04.904Z,98638.77
2017-12-11T11:04:09.306Z,98630.11
2017-12-11T11:05:13.867Z,98629.66
2017-12-11T11:06:18.161Z,98621.66
2017-12-11T11:07:22.462Z,98616.52
2017-12-11T11:08:26.750Z,98608.65
2017-12-11T11:09:31.127Z,98611.05
2017-12-11T11:10:35.458Z,98609.51
2017-12-11T11:11:40.067Z,98601.46
2017-12-11T11:12:45.058Z,98598.37
2017-12-11T11:13:49.316Z,98596.68
2017-12-11T11:14:53.604Z,98589.63
2017-12-11T11:15:58.778Z,98583.94
2017-12-11T11:17:03.235Z,98585.63
2017-12-11T11:18:08.460Z,98578.97
2017-12-11T11:19:12.748Z,98576.79
2017-12-11T11:20:17.107Z,98573.00
2017-12-11T11:21:21.572Z,98571.81
2017-12-11T11:22:25.876Z,98574.02
2017-12-11T11:23:30.624Z,98584.87
2017-12-11T11:24:35.075Z,98589.78
2017-12-11T11:25:39.481Z,98588.88
2017-12-11T11:26:45.013Z,98591.91
2017-12-11T11:27:49.340Z,98594.56
2017-12-11T11:28:53.665Z,98592.87
2017-12-11T11:29:58.228Z,98597.59
2017-12-11T11:31:02.595Z,98606.23
2017-12-11T11:32:07.653Z,98615.03
2017-12-11T11:33:11.928Z,98618.09
2017-12-11T11:34:16.166Z,98617.79
2017-12-11T11:35:20.446Z,98611.63
2017-12-11T11:36:25.051Z,98614.02
2017-12-11T11:37:29.398Z,98610.52
2017-12-11T11:38:33.704Z,98599.52
2017-12-11T11:39:38.088Z,98594.74
2017-12-11T11:40:42.495Z,98587.11
2017-12-11T11:41:46.756Z,98585.15
2017-12-11T11:42:51.041Z,98577.01
2017-12-11T11:43:55.348Z,98568.78
2017-12-11T11:44:59.704Z,98571.42
2017-12-11T11:46:04.325Z,98557.08
2017-12-11T11:47:08.675Z,98555.19
2017-12-11T11:48:12.965Z,98556.00
2017-12-11T11:49:17.536Z,98561.09
2017-12-11T11:50:21.876Z,98569.88
2017-12-11T11:51:26.156Z,98577.98
2017-12-11T11:52:30.521Z,98568.78
2017-12-11T11:53:34.843Z,98569.53
2017-12-11T11:54:39.453Z,98575.20
2017-12-11T11:55:44.692Z,98581.13
2017-12-11T11:56:48.999Z,98584.52
2017-12-11T11:57:53.268Z,98585.69
2017-12-11T11:58:57.648Z,98578.45
2017-12-11T12:00:03.377Z,98573.23
2017-12-11T12:01:09.952Z,98569.31
2017-12-11T12:02:14.623Z,98555.33
2017-12-11T12:03:18.898Z,98550.31
2017-12-11T12:04:23.105Z,98545.97
2017-12-11T12:05:27.463Z,98539.10
2017-12-11T12:06:31.697Z,98534.50
2017-12-11T12:07:36.355Z,98527.45
2017-12-11T12:08:40.597Z,98524.97
2017-12-11T12:09:44.894Z,98526.23
2017-12-11T12:10:49.320Z,98522.52
2017-12-11T12:11:53.643Z,98523.36
2017-12-11T12:12:57.964Z,98512.97
2017-12-11T12:14:02.560Z,98509.14
2017-12-11T12:15:07.366Z,98500.25
2017-12-11T12:16:12.011Z,98494.17
2017-12-11T12:17:16.363Z,98499.73
2017-12-11T12:18:20.616Z,98503.98
2017-12-11T12:19:25.286Z,98498.03
2017-12-11T12:20:29.947Z,98503.67
2017-12-11T12:21:34.402Z,98498.38
2017-12-11T12:22:38.801Z,98493.66
2017-12-11T12:23:43.075Z,98489.83
2017-12-11T12:24:47.470Z,98484.23
2017-12-11T12:25:51.809Z,98485.30
2017-12-11T12:26:56.481Z,98476.70
2017-12-11T12:28:00.767Z,98477.69
2017-12-11T12:29:05.742Z,98479.86
2017-12-11T12:30:10.314Z,98469.56
2017-12-11T12:31:14.818Z,98461.13
2017-12-11T12:32:19.542Z,98456.61
2017-12-11T12:33:23.780Z,98452.90
2017-12-11T12:34:28.092Z,98446.56
2017-12-11T12:35:32.310Z,98438.85
2017-12-11T12:36:36.689Z,98441.59
2017-12-11T12:37:40.959Z,98437.59
2017-12-11T12:38:46.113Z,98435.88
2017-12-11T12:39:50.810Z,98438.67
2017-12-11T12:40:55.187Z,98438.85
2017-12-11T12:41:59.530Z,98439.77